createdAt,value
2017-12-20T00:00:43.479Z,33.60
2017-12-20T00:03:11.716Z,39.93
2017-12-20T00:05:39.158Z,33.50
2017-12-20T00:08:06.625Z,37.60
2017-12-20T00:10:34.078Z,38.70
2017-12-20T00:13:01.549Z,37.45
2017-12-20T00:15:29.006Z,38.33
2017-12-20T00:17:56.510Z,33.37
2017-12-20T00:20:24.721Z,44.30
2017-12-20T00:22:52.177Z,34.42
2017-12-20T00:25:19.632Z,36.50
2017-12-20T00:27:47.086Z,38.88
2017-12-20T00:30:14.544Z,42.78
2017-12-20T00:32:42.006Z,41.70
2017-12-20T00:35:09.464Z,47.58
2017-12-20T00:37:37.688Z,32.42
2017-12-20T00:40:05.927Z,34.40
2017-12-20T00:42:33.388Z,46.53
2017-12-20T00:45:02.829Z,39.25
2017-12-20T00:47:30.280Z,38.88
2017-12-20T00:49:58.530Z,39.23
2017-12-20T00:52:25.978Z,33.27
2017-12-20T00:54:53.429Z,41.37
2017-12-20T00:57:20.894Z,36.97
2017-12-20T00:59:48.350Z,35.47
2017-12-20T01:02:15.814Z,33.90
2017-12-20T01:04:43.256Z,30.05
2017-12-20T01:07:10.721Z,30.48
2017-12-20T01:09:38.212Z,31.62
2017-12-20T01:12:06.711Z,35.72
2017-12-20T01:14:34.172Z,32.77
2017-12-20T01:17:01.639Z,33.70
2017-12-20T01:19:29.085Z,30.27
2017-12-20T01:21:56.562Z,31.73
2017-12-20T01:24:24.013Z,32.47
2017-12-20T01:26:51.474Z,36.15
2017-12-20T01:29:18.930Z,32.33
2017-12-20T01:31:46.431Z,37.42
2017-12-20T01:34:13.871Z,40.88
2017-12-20T01:36:41.338Z,36.53
2017-12-20T01:39:08.803Z,29.23
2017-12-20T01:41:36.251Z,27.73
2017-12-20T01:44:05.414Z,33.33
2017-12-20T01:46:32.811Z,40.63
2017-12-20T01:49:00.294Z,31.58
2017-12-20T01:51:27.777Z,35.38
2017-12-20T01:53:55.312Z,34.60
2017-12-20T01:56:23.597Z,34.33
2017-12-20T01:58:53.246Z,27.90
2017-12-20T02:01:21.997Z,32.60
2017-12-20T02:03:49.518Z,29.70
2017-12-20T02:06:17.011Z,33.90
2017-12-20T02:08:44.520Z,30.50
2017-12-20T02:11:12.022Z,30.00
2017-12-20T02:13:39.526Z,29.03
2017-12-20T02:16:07.006Z,23.67
2017-12-20T02:18:35.264Z,30.80
2017-12-20T02:21:02.745Z,32.47
2017-12-20T02:23:30.994Z,33.10
2017-12-20T02:25:58.470Z,23.20
2017-12-20T02:28:25.957Z,30.73
2017-12-20T02:30:53.435Z,24.30
2017-12-20T02:33:36.125Z,29.40
2017-12-20T02:36:04.388Z,30.70
2017-12-20T02:38:39.087Z,25.20
2017-12-20T02:41:06.579Z,30.77
2017-12-20T02:43:34.824Z,22.03
2017-12-20T02:46:02.343Z,22.98
2017-12-20T02:48:29.838Z,22.10
2017-12-20T02:50:57.344Z,29.90
2017-12-20T02:53:24.867Z,20.50
2017-12-20T02:55:52.385Z,15.40
2017-12-20T02:58:19.953Z,25.42
2017-12-20T03:00:48.160Z,22.85
2017-12-20T03:03:15.668Z,21.08
2017-12-20T03:05:43.195Z,26.70
2017-12-20T03:08:11.480Z,21.10
2017-12-20T03:10:38.990Z,21.20
2017-12-20T03:13:06.516Z,24.90
2017-12-20T03:15:34.011Z,26.40
2017-12-20T03:18:01.493Z,27.40
2017-12-20T03:20:29.795Z,24.57
2017-12-20T03:22:57.315Z,27.33
2017-12-20T03:25:25.578Z,25.30
2017-12-20T03:27:53.071Z,22.15
2017-12-20T03:30:21.343Z,20.60
2017-12-20T03:32:49.623Z,24.10
2017-12-20T03:35:17.150Z,26.62
2017-12-20T03:37:44.658Z,25.50
2017-12-20T03:40:12.166Z,24.73
2017-12-20T03:42:39.655Z,22.57
2017-12-20T03:45:07.145Z,22.45
2017-12-20T03:47:34.634Z,28.50
2017-12-20T03:50:02.144Z,24.12
2017-12-20T03:52:29.639Z,28.10
2017-12-20T03:54:57.211Z,24.30
2017-12-20T03:57:24.731Z,27.40
2017-12-20T03:59:52.235Z,24.20
2017-12-20T04:02:19.750Z,23.67
2017-12-20T04:04:47.244Z,30.07
2017-12-20T04:07:14.762Z,20.27
2017-12-20T04:09:42.271Z,21.27
2017-12-20T04:12:10.577Z,29.45
2017-12-20T04:14:38.083Z,24.73
2017-12-20T04:17:05.585Z,21.83
2017-12-20T04:19:33.083Z,27.37
2017-12-20T04:22:00.595Z,25.52
2017-12-20T04:24:28.867Z,22.17
2017-12-20T04:26:57.156Z,25.40
2017-12-20T04:29:24.654Z,23.07
2017-12-20T04:31:52.156Z,30.47
2017-12-20T04:34:20.423Z,26.57
2017-12-20T04:36:48.690Z,27.13
2017-12-20T04:39:16.203Z,32.20
2017-12-20T04:41:43.710Z,33.28
2017-12-20T04:44:11.224Z,27.97
2017-12-20T04:46:38.708Z,27.83
2017-12-20T04:49:06.202Z,25.20
2017-12-20T04:51:33.703Z,34.38
2017-12-20T04:54:01.218Z,26.45
2017-12-20T04:56:28.731Z,25.17
2017-12-20T04:58:56.240Z,28.08
2017-12-20T05:01:23.737Z,33.33
2017-12-20T05:03:51.231Z,25.93
2017-12-20T05:06:18.723Z,30.63
2017-12-20T05:08:46.234Z,29.77
2017-12-20T05:11:13.740Z,22.50
2017-12-20T05:13:41.253Z,21.30
2017-12-20T05:16:08.758Z,27.33
2017-12-20T05:18:36.275Z,26.50
2017-12-20T05:21:04.550Z,24.80
2017-12-20T05:23:32.076Z,24.55
2017-12-20T05:25:59.582Z,21.93
2017-12-20T05:28:27.847Z,25.92
2017-12-20T05:30:56.126Z,32.00
2017-12-20T05:33:24.406Z,23.57
2017-12-20T05:35:52.679Z,22.10
2017-12-20T05:38:20.943Z,19.70
2017-12-20T05:40:48.443Z,25.55
2017-12-20T05:43:15.962Z,27.10
2017-12-20T05:45:43.465Z,27.05
2017-12-20T05:48:10.983Z,29.52
2017-12-20T05:50:39.260Z,22.30
2017-12-20T05:53:06.764Z,24.47
2017-12-20T05:55:34.270Z,23.87
2017-12-20T05:58:01.822Z,25.23
2017-12-20T06:00:29.302Z,20.50
2017-12-20T06:02:57.569Z,14.50
2017-12-20T06:05:25.827Z,16.55
2017-12-20T06:07:53.323Z,22.70
2017-12-20T06:10:20.832Z,17.77
2017-12-20T06:12:48.328Z,17.37
2017-12-20T06:15:16.631Z,13.13
2017-12-20T06:17:44.173Z,20.43
2017-12-20T06:20:11.723Z,21.70
2017-12-20T06:22:40.012Z,19.95
2017-12-20T06:25:07.527Z,26.08
2017-12-20T06:27:35.027Z,18.33
2017-12-20T06:30:02.586Z,19.95
2017-12-20T06:32:30.082Z,12.95
2017-12-20T06:34:57.574Z,17.70
2017-12-20T06:37:25.851Z,16.73
2017-12-20T06:39:53.332Z,12.10
2017-12-20T06:42:20.833Z,13.10
2017-12-20T06:44:48.347Z,13.27
2017-12-20T06:47:16.601Z,13.07
2017-12-20T06:49:44.847Z,13.33
2017-12-20T06:52:12.364Z,10.93
2017-12-20T06:54:39.872Z,10.20
2017-12-20T06:57:07.370Z,10.88
2017-12-20T07:02:09.634Z,8.55
2017-12-20T07:04:37.919Z,9.02
2017-12-20T07:07:05.453Z,10.53
2017-12-20T07:09:32.952Z,8.73
2017-12-20T07:12:00.463Z,7.30
2017-12-20T07:14:27.987Z,9.70
2017-12-20T07:16:55.487Z,8.60
2017-12-20T07:19:23.007Z,8.73
2017-12-20T07:21:50.507Z,8.93
2017-12-20T07:24:18.014Z,9.45
2017-12-20T07:26:45.526Z,9.63
2017-12-20T07:29:13.845Z,8.90
2017-12-20T07:31:41.325Z,7.20
2017-12-20T07:34:08.818Z,8.13
2017-12-20T07:36:37.106Z,9.05
2017-12-20T07:39:05.363Z,7.70
2017-12-20T07:41:32.928Z,9.10
2017-12-20T07:44:00.370Z,8.98
2017-12-20T07:46:27.884Z,7.37
2017-12-20T07:48:55.388Z,7.73
2017-12-20T07:51:22.919Z,7.50
2017-12-20T07:53:50.439Z,8.30
2017-12-20T07:56:17.930Z,9.48
2017-12-20T07:58:45.424Z,10.20
2017-12-20T08:01:12.935Z,7.87
2017-12-20T08:03:40.431Z,10.40
2017-12-20T08:06:07.945Z,7.23
2017-12-20T08:08:35.435Z,8.18
2017-12-20T08:11:02.936Z,9.57
2017-12-20T08:13:30.444Z,9.67
2017-12-20T08:15:57.947Z,10.27
2017-12-20T08:18:26.228Z,9.85
2017-12-20T08:20:54.519Z,9.30
2017-12-20T08:23:22.011Z,11.17
2017-12-20T08:25:49.519Z,11.13
2017-12-20T08:28:17.770Z,12.33
2017-12-20T08:30:45.272Z,8.27
2017-12-20T08:33:12.769Z,10.60
2017-12-20T08:35:40.291Z,7.60
2017-12-20T08:38:07.784Z,7.60
2017-12-20T08:40:35.280Z,7.50
2017-12-20T08:43:03.513Z,11.63
2017-12-20T08:45:31.003Z,5.87
2017-12-20T08:47:58.508Z,7.73
2017-12-20T08:50:26.003Z,7.70
2017-12-20T08:52:53.499Z,8.30
2017-12-20T08:55:20.987Z,7.40
2017-12-20T08:57:48.463Z,7.77
2017-12-20T09:00:15.954Z,12.93
2017-12-20T09:02:44.212Z,7.30
2017-12-20T09:05:11.704Z,6.37
2017-12-20T09:07:39.208Z,6.47
2017-12-20T09:10:06.704Z,6.67
2017-12-20T09:12:34.989Z,5.00
2017-12-20T09:15:03.243Z,9.17
2017-12-20T09:17:30.734Z,4.40
2017-12-20T09:19:58.225Z,10.10
2017-12-20T09:22:25.749Z,4.85
2017-12-20T09:24:53.258Z,7.30
2017-12-20T09:27:20.763Z,6.53
2017-12-20T09:29:49.028Z,6.17
2017-12-20T09:32:17.295Z,6.20
2017-12-20T09:34:44.785Z,5.40
2017-12-20T09:37:12.293Z,5.50
2017-12-20T09:39:39.796Z,5.13
2017-12-20T09:42:07.300Z,4.70
2017-12-20T09:44:34.799Z,4.03
2017-12-20T09:47:03.071Z,5.17
2017-12-20T09:49:31.340Z,4.00
2017-12-20T09:51:59.609Z,5.67
2017-12-20T09:54:27.875Z,5.47
2017-12-20T09:56:55.371Z,4.17
2017-12-20T09:59:22.875Z,4.15
2017-12-20T10:01:50.382Z,4.87
2017-12-20T10:04:17.913Z,6.17
2017-12-20T10:06:45.400Z,5.73
2017-12-20T10:09:12.929Z,5.67
2017-12-20T10:11:41.223Z,5.07
2017-12-20T10:14:09.483Z,5.63
2017-12-20T10:16:36.989Z,6.33
2017-12-20T10:19:04.507Z,5.97
2017-12-20T10:21:32.767Z,5.10
2017-12-20T10:24:00.272Z,3.80
2017-12-20T10:26:27.775Z,4.73
2017-12-20T10:28:55.254Z,4.47
2017-12-20T10:31:23.536Z,4.83
2017-12-20T10:33:51.737Z,4.77
2017-12-20T10:36:19.188Z,6.20
2017-12-20T10:38:46.641Z,5.03
2017-12-20T10:41:14.087Z,5.67
2017-12-20T10:43:43.448Z,5.73
2017-12-20T10:49:18.051Z,6.17
2017-12-20T10:54:42.247Z,6.30
2017-12-20T10:57:12.875Z,6.33
2017-12-20T11:05:15.215Z,5.67
2017-12-20T11:07:42.720Z,5.37
2017-12-20T11:10:10.961Z,4.70
2017-12-20T11:12:38.413Z,5.63
2017-12-20T11:15:06.589Z,5.70
2017-12-20T11:17:43.968Z,4.97
2017-12-20T11:20:34.739Z,4.93
2017-12-20T11:23:03.053Z,3.30
2017-12-20T11:25:32.391Z,5.53
2017-12-20T11:28:00.819Z,3.93
2017-12-20T11:30:28.314Z,3.00
2017-12-20T11:32:56.190Z,4.00
2017-12-20T11:35:23.743Z,3.50
2017-12-20T11:37:51.243Z,3.63
2017-12-20T11:40:18.755Z,3.93
2017-12-20T11:42:46.262Z,3.50
2017-12-20T11:45:13.775Z,3.70
2017-12-20T11:47:41.218Z,3.80
2017-12-20T11:50:08.661Z,4.30
2017-12-20T11:52:36.112Z,4.70
2017-12-20T11:55:03.563Z,4.43
2017-12-20T11:57:31.016Z,4.77
2017-12-20T11:59:58.449Z,4.00
2017-12-20T12:02:25.901Z,4.10
2017-12-20T12:04:53.343Z,5.20
2017-12-20T12:07:21.557Z,4.13
2017-12-20T12:09:49.002Z,4.03
2017-12-20T12:12:16.436Z,4.27
2017-12-20T12:14:43.897Z,4.87
2017-12-20T12:17:11.336Z,4.80
2017-12-20T12:19:39.552Z,6.57
2017-12-20T12:22:07.066Z,6.20
2017-12-20T12:24:34.466Z,9.23
2017-12-20T12:27:01.917Z,6.20
2017-12-20T12:29:29.355Z,7.17
2017-12-20T12:31:56.795Z,7.63
2017-12-20T12:34:25.016Z,7.80
2017-12-20T12:36:52.460Z,6.60
2017-12-20T12:39:19.909Z,6.80
2017-12-20T12:41:47.358Z,8.43
2017-12-20T12:44:14.816Z,7.10
2017-12-20T12:46:42.249Z,10.57
2017-12-20T12:49:10.472Z,10.33
2017-12-20T12:51:37.912Z,8.90
2017-12-20T12:54:05.361Z,8.53
2017-12-20T12:56:32.797Z,8.77
2017-12-20T12:59:01.053Z,9.13
2017-12-20T13:01:28.488Z,9.80
2017-12-20T13:03:55.988Z,5.67
2017-12-20T13:06:24.200Z,7.23
2017-12-20T13:08:51.646Z,7.63
2017-12-20T13:11:19.081Z,8.70
2017-12-20T13:13:46.528Z,6.00
2017-12-20T13:16:14.751Z,7.10
2017-12-20T13:18:42.205Z,6.40
2017-12-20T13:21:09.649Z,6.20
2017-12-20T13:23:37.082Z,6.60
2017-12-20T13:26:04.532Z,6.80
2017-12-20T13:28:32.737Z,8.63
2017-12-20T13:31:00.198Z,9.87
2017-12-20T13:33:27.638Z,6.83
2017-12-20T13:35:55.085Z,8.23
2017-12-20T13:38:22.529Z,7.70
2017-12-20T13:40:50.752Z,8.70
2017-12-20T13:43:18.205Z,9.00
2017-12-20T13:45:45.687Z,8.10
2017-12-20T13:48:13.136Z,8.17
2017-12-20T13:50:40.574Z,7.20
2017-12-20T13:53:08.022Z,5.60
2017-12-20T13:55:35.471Z,7.10
2017-12-20T13:58:02.909Z,7.37
2017-12-20T14:00:30.354Z,6.43
2017-12-20T14:02:58.573Z,8.20
2017-12-20T14:05:26.021Z,8.37
2017-12-20T14:07:53.464Z,6.60
2017-12-20T14:10:20.909Z,9.03
2017-12-20T14:12:48.364Z,8.80
2017-12-20T14:15:16.571Z,8.47
2017-12-20T14:17:44.017Z,11.37
2017-12-20T14:20:11.460Z,8.40
2017-12-20T14:22:38.918Z,8.73
2017-12-20T14:25:06.357Z,10.53
2017-12-20T14:27:34.582Z,8.50
2017-12-20T14:30:02.027Z,9.20
2017-12-20T14:32:29.469Z,8.30
2017-12-20T14:34:56.912Z,8.40
2017-12-20T14:37:25.108Z,9.80
2017-12-20T14:39:52.562Z,10.17
2017-12-20T14:42:20.013Z,9.03
2017-12-20T14:44:47.465Z,8.67
2017-12-20T14:47:14.904Z,8.50
2017-12-20T14:49:42.352Z,7.80
2017-12-20T14:52:10.567Z,8.10
2017-12-20T14:54:38.025Z,10.50
2017-12-20T14:57:05.460Z,7.57
2017-12-20T14:59:32.912Z,10.00
2017-12-20T15:02:00.354Z,8.80
2017-12-20T15:04:28.569Z,6.87
2017-12-20T15:06:56.019Z,10.13
2017-12-20T15:09:23.478Z,11.60
2017-12-20T15:11:50.931Z,9.63
2017-12-20T15:14:18.392Z,7.87
2017-12-20T15:16:45.845Z,12.17
2017-12-20T15:19:13.293Z,9.93
2017-12-20T15:21:40.744Z,10.23
2017-12-20T15:24:08.190Z,9.93
2017-12-20T15:26:35.632Z,11.37
2017-12-20T15:29:03.090Z,11.43
2017-12-20T15:31:30.538Z,10.50
2017-12-20T15:33:57.981Z,12.97
2017-12-20T15:36:25.429Z,11.70
2017-12-20T15:38:52.885Z,10.57
2017-12-20T15:41:20.349Z,11.27
2017-12-20T15:43:47.798Z,10.20
2017-12-20T15:46:15.241Z,11.70
2017-12-20T15:48:42.695Z,9.60
2017-12-20T15:51:10.139Z,11.10
2017-12-20T15:53:37.602Z,14.03
2017-12-20T15:56:05.050Z,10.60
2017-12-20T15:58:32.508Z,11.57
2017-12-20T16:00:59.944Z,9.50
2017-12-20T16:03:27.388Z,9.40
2017-12-20T16:05:55.605Z,13.37
2017-12-20T16:08:23.117Z,13.80
2017-12-20T16:10:50.529Z,12.37
2017-12-20T16:13:17.982Z,12.40
2017-12-20T16:15:45.432Z,12.93
2017-12-20T16:18:13.312Z,17.37
2017-12-20T16:20:40.756Z,14.20
2017-12-20T16:23:08.204Z,12.83
2017-12-20T16:25:35.663Z,14.20
2017-12-20T16:28:03.109Z,12.90
2017-12-20T16:30:30.569Z,16.20
2017-12-20T16:32:58.012Z,14.27
2017-12-20T16:35:25.478Z,15.17
2017-12-20T16:37:52.922Z,12.77
2017-12-20T16:40:20.614Z,15.33
2017-12-20T16:42:48.068Z,15.30
2017-12-20T16:45:15.522Z,15.77
2017-12-20T16:47:42.966Z,16.50
2017-12-20T16:50:10.418Z,12.47
2017-12-20T16:52:37.886Z,15.33
2017-12-20T16:55:05.328Z,18.57
2017-12-20T16:57:32.771Z,19.40
2017-12-20T17:00:00.225Z,12.77
2017-12-20T17:02:28.439Z,17.50
2017-12-20T17:04:55.892Z,21.13
2017-12-20T17:07:23.359Z,16.07
2017-12-20T17:09:50.851Z,16.60
2017-12-20T17:12:18.335Z,15.87
2017-12-20T17:14:45.821Z,21.47
2017-12-20T17:17:13.256Z,20.17
2017-12-20T17:19:40.750Z,18.63
2017-12-20T17:22:08.177Z,18.50
2017-12-20T17:24:35.629Z,17.63
2017-12-20T17:27:03.072Z,20.00
2017-12-20T17:29:30.521Z,22.70
2017-12-20T17:31:58.743Z,20.87
2017-12-20T17:34:26.205Z,21.07
2017-12-20T17:36:53.657Z,20.70
2017-12-20T17:39:21.870Z,22.10
2017-12-20T17:41:49.328Z,22.60
2017-12-20T17:44:17.554Z,23.03
2017-12-20T17:46:45.006Z,21.60
2017-12-20T17:49:12.506Z,18.70
2017-12-20T17:51:39.949Z,21.90
2017-12-20T17:54:08.195Z,24.40
2017-12-20T17:56:35.651Z,23.77
2017-12-20T17:59:03.134Z,24.03
2017-12-20T18:01:30.583Z,22.10
2017-12-20T18:03:58.075Z,24.17
2017-12-20T18:06:25.526Z,22.53
2017-12-20T18:08:53.015Z,21.33
2017-12-20T18:11:21.219Z,22.70
2017-12-20T18:13:49.441Z,23.00
2017-12-20T18:16:17.714Z,23.00
2017-12-20T18:18:45.155Z,19.40
2017-12-20T18:21:13.496Z,22.40
2017-12-20T18:23:41.306Z,22.40
2017-12-20T18:26:08.812Z,21.50
2017-12-20T18:31:38.800Z,18.33
2017-12-20T18:34:06.303Z,23.33
2017-12-20T18:36:33.885Z,21.70
2017-12-20T18:39:01.430Z,28.77
2017-12-20T18:41:28.968Z,35.43
2017-12-20T18:43:56.424Z,42.67
2017-12-20T18:46:23.871Z,20.20
2017-12-20T18:48:51.362Z,17.10
2017-12-20T18:51:18.805Z,20.50
2017-12-20T18:53:46.249Z,20.30
2017-12-20T18:56:13.705Z,16.43
2017-12-20T18:58:41.169Z,16.20
2017-12-20T19:01:08.671Z,17.77
2017-12-20T19:03:36.121Z,17.53
2017-12-20T19:06:03.598Z,21.90
2017-12-20T19:08:31.051Z,24.03
2017-12-20T19:10:58.514Z,20.20
2017-12-20T19:13:25.963Z,20.53
2017-12-20T19:15:53.444Z,27.47
2017-12-20T19:18:21.712Z,22.90
2017-12-20T19:20:49.337Z,20.00
2017-12-20T19:23:16.906Z,18.00
2017-12-20T19:25:44.445Z,25.30
2017-12-20T19:28:11.941Z,20.50
2017-12-20T19:30:39.385Z,22.50
2017-12-20T19:33:06.837Z,19.47
2017-12-20T19:35:34.345Z,19.57
2017-12-20T19:38:02.586Z,21.03
2017-12-20T19:40:30.069Z,22.83
2017-12-20T19:42:58.271Z,24.23
2017-12-20T19:45:25.796Z,19.23
2017-12-20T19:47:54.039Z,21.37
2017-12-20T19:50:21.519Z,23.23
2017-12-20T19:52:49.005Z,17.10
2017-12-20T19:55:16.501Z,20.98
2017-12-20T19:57:43.993Z,23.83
2017-12-20T20:00:11.476Z,19.63
2017-12-20T20:02:39.736Z,23.77
2017-12-20T20:05:08.021Z,21.70
2017-12-20T20:07:36.275Z,22.53
2017-12-20T20:10:03.740Z,20.80
2017-12-20T20:12:32.437Z,24.63
2017-12-20T20:14:59.919Z,25.53
2017-12-20T20:17:27.400Z,24.73
2017-12-20T20:19:54.901Z,21.83
2017-12-20T20:22:23.132Z,22.00
2017-12-20T20:24:50.631Z,19.17
2017-12-20T20:27:18.140Z,20.83
2017-12-20T20:29:45.631Z,24.15
2017-12-20T20:32:13.148Z,25.73
2017-12-20T20:34:40.670Z,24.60
2017-12-20T20:37:08.927Z,20.73
2017-12-20T20:39:36.409Z,27.23
2017-12-20T20:42:04.669Z,30.33
2017-12-20T20:44:32.151Z,33.80
2017-12-20T20:46:59.654Z,29.27
2017-12-20T20:49:27.135Z,32.67
2017-12-20T20:51:54.640Z,35.73
2017-12-20T20:54:22.133Z,38.53
2017-12-20T20:56:49.632Z,37.83
2017-12-20T20:59:17.887Z,28.87
2017-12-20T21:01:45.392Z,35.40
2017-12-20T21:04:12.892Z,34.33
2017-12-20T21:06:40.393Z,31.57
2017-12-20T21:09:07.900Z,26.80
2017-12-20T21:11:35.365Z,31.30
2017-12-20T21:14:02.873Z,28.33
2017-12-20T21:16:30.358Z,25.07
2017-12-20T21:18:57.797Z,22.23
2017-12-20T21:21:25.265Z,23.43
2017-12-20T21:23:52.764Z,20.77
2017-12-20T21:26:21.036Z,21.33
2017-12-20T21:28:48.541Z,21.13
2017-12-20T21:31:16.042Z,20.00
2017-12-20T21:33:43.482Z,24.50
2017-12-20T21:36:10.941Z,24.97
2017-12-20T21:38:38.432Z,22.43
2017-12-20T21:41:06.711Z,20.33
2017-12-20T21:43:34.922Z,28.83
2017-12-20T21:46:02.422Z,24.63
2017-12-20T21:48:29.912Z,21.40
2017-12-20T21:50:58.178Z,24.30
2017-12-20T21:53:26.434Z,23.70
2017-12-20T21:55:53.943Z,26.70
2017-12-20T21:58:21.440Z,27.17
2017-12-20T22:00:48.923Z,24.47
2017-12-20T22:03:16.364Z,25.47
2017-12-20T22:05:44.626Z,25.00
2017-12-20T22:08:12.516Z,24.73
2017-12-20T22:10:40.850Z,28.73
2017-12-20T22:13:09.064Z,31.03
2017-12-20T22:15:36.491Z,31.80
2017-12-20T22:18:03.992Z,31.63
2017-12-20T22:20:32.241Z,34.10
2017-12-20T22:22:59.736Z,30.70
2017-12-20T22:25:27.989Z,30.20
2017-12-20T22:27:55.473Z,28.40
2017-12-20T22:30:22.951Z,32.73
2017-12-20T22:32:50.438Z,31.67
2017-12-20T22:35:17.934Z,30.95
2017-12-20T22:37:46.200Z,34.07
2017-12-20T22:40:14.452Z,38.57
2017-12-20T22:42:41.940Z,29.90
2017-12-20T22:45:10.182Z,32.00
2017-12-20T22:47:37.663Z,34.63
2017-12-20T22:50:05.915Z,37.70
2017-12-20T22:52:33.409Z,37.72
2017-12-20T22:55:00.858Z,33.13
2017-12-20T22:57:29.072Z,39.93
2017-12-20T22:59:56.567Z,43.33
2017-12-20T23:02:24.055Z,33.83
2017-12-20T23:04:52.291Z,50.97
2017-12-20T23:07:19.790Z,45.50
2017-12-20T23:09:47.233Z,44.45
2017-12-20T23:12:15.496Z,48.83
2017-12-20T23:14:42.962Z,54.07
2017-12-20T23:17:11.220Z,45.00
2017-12-20T23:19:38.657Z,46.63
2017-12-20T23:22:06.143Z,42.83
2017-12-20T23:24:33.619Z,50.70
2017-12-20T23:27:01.833Z,45.08
2017-12-20T23:29:30.091Z,48.87
2017-12-20T23:31:57.530Z,54.70
2017-12-20T23:34:25.011Z,45.00
2017-12-20T23:36:52.504Z,45.10
2017-12-20T23:39:19.983Z,49.37
2017-12-20T23:41:47.475Z,40.63
2017-12-20T23:44:14.952Z,53.13
2017-12-20T23:46:42.387Z,45.13
2017-12-20T23:49:09.849Z,46.73
2017-12-20T23:51:37.342Z,51.03
2017-12-20T23:54:04.793Z,39.58
2017-12-20T23:56:32.283Z,38.73
2017-12-20T23:58:59.725Z,35.73
